sensor_id;sensor_type;location;lat;lon;timestamp;temperature;humidity
21807;DHT22;11065;50.786;7.840;2023-04-01T00:00:51;13.20;54.10
21807;DHT22;11065;50.786;7.840;2023-04-01T00:03:19;13.20;54.00
21807;DHT22;11065;50.786;7.840;2023-04-01T00:05:47;13.20;54.20
21807;DHT22;11065;50.786;7.840;2023-04-01T00:08:16;13.20;54.70
21807;DHT22;11065;50.786;7.840;2023-04-01T00:10:45;13.20;54.30
21807;DHT22;11065;50.786;7.840;2023-04-01T00:13:14;13.20;54.20
21807;DHT22;11065;50.786;7.840;2023-04-01T00:15:43;13.10;54.20
21807;DHT22;11065;50.786;7.840;2023-04-01T00:18:11;13.10;54.00
21807;DHT22;11065;50.786;7.840;2023-04-01T00:20:44;13.10;54.10
21807;DHT22;11065;50.786;7.840;2023-04-01T00:23:12;13.10;54.20
21807;DHT22;11065;50.786;7.840;2023-04-01T00:25:41;13.10;54.40
21807;DHT22;11065;50.786;7.840;2023-04-01T00:28:09;13.10;54.20
21807;DHT22;11065;50.786;7.840;2023-04-01T00:30:38;13.10;54.30
21807;DHT22;11065;50.786;7.840;2023-04-01T00:33:07;13.10;54.30
21807;DHT22;11065;50.786;7.840;2023-04-01T00:35:35;13.10;54.30
21807;DHT22;11065;50.786;7.840;2023-04-01T00:38:03;13.10;54.10
21807;DHT22;11065;50.786;7.840;2023-04-01T00:40:34;13.10;54.30
21807;DHT22;11065;50.786;7.840;2023-04-01T00:43:03;13.20;54.60
21807;DHT22;11065;50.786;7.840;2023-04-01T00:45:40;13.10;54.30
21807;DHT22;11065;50.786;7.840;2023-04-01T00:48:11;13.00;54.50
21807;DHT22;11065;50.786;7.840;2023-04-01T00:50:43;13.00;54.60
21807;DHT22;11065;50.786;7.840;2023-04-01T00:53:12;13.00;54.30
21807;DHT22;11065;50.786;7.840;2023-04-01T00:55:43;13.00;54.30
21807;DHT22;11065;50.786;7.840;2023-04-01T00:58:15;13.00;54.70
21807;DHT22;11065;50.786;7.840;2023-04-01T01:00:47;13.00;54.60
21807;DHT22;11065;50.786;7.840;2023-04-01T01:03:16;12.90;54.40
21807;DHT22;11065;50.786;7.840;2023-04-01T01:06:15;12.90;54.90
21807;DHT22;11065;50.786;7.840;2023-04-01T01:09:06;12.90;55.10
21807;DHT22;11065;50.786;7.840;2023-04-01T01:11:38;12.90;54.90
21807;DHT22;11065;50.786;7.840;2023-04-01T01:14:20;12.90;55.00
21807;DHT22;11065;50.786;7.840;2023-04-01T01:16:56;12.80;55.00
21807;DHT22;11065;50.786;7.840;2023-04-01T01:19:44;12.80;54.80
21807;DHT22;11065;50.786;7.840;2023-04-01T01:22:34;12.80;54.80
21807;DHT22;11065;50.786;7.840;2023-04-01T01:25:16;12.80;54.80
21807;DHT22;11065;50.786;7.840;2023-04-01T01:27:54;12.80;54.70
21807;DHT22;11065;50.786;7.840;2023-04-01T01:30:35;12.80;54.60
21807;DHT22;11065;50.786;7.840;2023-04-01T01:33:17;12.90;55.00
21807;DHT22;11065;50.786;7.840;2023-04-01T01:35:52;12.80;54.90
21807;DHT22;11065;50.786;7.840;2023-04-01T01:38:26;12.80;54.60
21807;DHT22;11065;50.786;7.840;2023-04-01T01:41:00;12.80;55.30
21807;DHT22;11065;50.786;7.840;2023-04-01T01:43:31;12.80;55.20
21807;DHT22;11065;50.786;7.840;2023-04-01T01:46:03;12.80;55.60
21807;DHT22;11065;50.786;7.840;2023-04-01T01:48:34;12.70;55.30
21807;DHT22;11065;50.786;7.840;2023-04-01T01:51:06;12.70;55.00
21807;DHT22;11065;50.786;7.840;2023-04-01T01:53:34;12.70;55.40
21807;DHT22;11065;50.786;7.840;2023-04-01T01:56:03;12.70;55.20
21807;DHT22;11065;50.786;7.840;2023-04-01T01:58:39;12.70;55.00
21807;DHT22;11065;50.786;7.840;2023-04-01T02:01:14;12.70;55.10
21807;DHT22;11065;50.786;7.840;2023-04-01T02:03:45;12.70;55.50
21807;DHT22;11065;50.786;7.840;2023-04-01T02:06:17;12.60;55.20
21807;DHT22;11065;50.786;7.840;2023-04-01T02:08:49;12.60;55.40
21807;DHT22;11065;50.786;7.840;2023-04-01T02:11:21;12.60;55.20
21807;DHT22;11065;50.786;7.840;2023-04-01T02:13:53;12.60;55.50
21807;DHT22;11065;50.786;7.840;2023-04-01T02:16:26;12.60;55.40
21807;DHT22;11065;50.786;7.840;2023-04-01T02:18:57;12.60;55.20
21807;DHT22;11065;50.786;7.840;2023-04-01T02:21:30;12.60;55.30
21807;DHT22;11065;50.786;7.840;2023-04-01T02:24:01;12.60;55.40
21807;DHT22;11065;50.786;7.840;2023-04-01T02:26:31;12.60;55.40
21807;DHT22;11065;50.786;7.840;2023-04-01T02:29:00;12.60;55.30
21807;DHT22;11065;50.786;7.840;2023-04-01T02:31:29;12.60;55.40
21807;DHT22;11065;50.786;7.840;2023-04-01T02:33:58;12.60;55.40
21807;DHT22;11065;50.786;7.840;2023-04-01T02:36:28;12.60;55.30
21807;DHT22;11065;50.786;7.840;2023-04-01T02:38:57;12.60;55.30
21807;DHT22;11065;50.786;7.840;2023-04-01T02:41:29;12.70;55.40
21807;DHT22;11065;50.786;7.840;2023-04-01T02:43:57;12.60;55.30
21807;DHT22;11065;50.786;7.840;2023-04-01T02:46:26;12.70;55.30
21807;DHT22;11065;50.786;7.840;2023-04-01T02:48:54;12.60;55.30
21807;DHT22;11065;50.786;7.840;2023-04-01T02:51:22;12.70;55.20
21807;DHT22;11065;50.786;7.840;2023-04-01T02:53:51;12.70;55.20
21807;DHT22;11065;50.786;7.840;2023-04-01T02:56:20;12.70;55.30
21807;DHT22;11065;50.786;7.840;2023-04-01T02:58:48;12.70;55.30
21807;DHT22;11065;50.786;7.840;2023-04-01T03:01:17;12.70;55.60
21807;DHT22;11065;50.786;7.840;2023-04-01T03:03:46;12.70;55.40
21807;DHT22;11065;50.786;7.840;2023-04-01T03:06:15;12.70;55.30
21807;DHT22;11065;50.786;7.840;2023-04-01T03:08:44;12.70;55.50
21807;DHT22;11065;50.786;7.840;2023-04-01T03:11:14;12.70;55.30
21807;DHT22;11065;50.786;7.840;2023-04-01T03:13:42;12.60;55.20
21807;DHT22;11065;50.786;7.840;2023-04-01T03:16:10;12.60;55.50
21807;DHT22;11065;50.786;7.840;2023-04-01T03:18:39;12.60;55.40
21807;DHT22;11065;50.786;7.840;2023-04-01T03:21:14;12.60;55.50
21807;DHT22;11065;50.786;7.840;2023-04-01T03:23:44;12.60;55.60
21807;DHT22;11065;50.786;7.840;2023-04-01T03:26:14;12.60;55.50
21807;DHT22;11065;50.786;7.840;2023-04-01T03:28:42;12.60;55.40
21807;DHT22;11065;50.786;7.840;2023-04-01T03:31:11;12.60;55.40
21807;DHT22;11065;50.786;7.840;2023-04-01T03:33:46;12.60;55.50
21807;DHT22;11065;50.786;7.840;2023-04-01T03:36:14;12.60;55.70
21807;DHT22;11065;50.786;7.840;2023-04-01T03:38:43;12.50;55.70
21807;DHT22;11065;50.786;7.840;2023-04-01T03:41:18;12.50;55.60
21807;DHT22;11065;50.786;7.840;2023-04-01T03:43:46;12.50;55.50
21807;DHT22;11065;50.786;7.840;2023-04-01T03:46:17;12.50;55.80
21807;DHT22;11065;50.786;7.840;2023-04-01T03:48:45;12.50;55.70
21807;DHT22;11065;50.786;7.840;2023-04-01T03:51:13;12.50;55.50
21807;DHT22;11065;50.786;7.840;2023-04-01T03:53:42;12.50;55.70
21807;DHT22;11065;50.786;7.840;2023-04-01T03:56:10;12.40;55.80
21807;DHT22;11065;50.786;7.840;2023-04-01T03:58:39;12.40;55.70
21807;DHT22;11065;50.786;7.840;2023-04-01T04:01:16;12.40;55.80
21807;DHT22;11065;50.786;7.840;2023-04-01T04:03:46;12.40;55.80
21807;DHT22;11065;50.786;7.840;2023-04-01T04:06:17;12.40;55.90
21807;DHT22;11065;50.786;7.840;2023-04-01T04:08:47;12.40;55.80
21807;DHT22;11065;50.786;7.840;2023-04-01T04:11:16;12.40;56.00
21807;DHT22;11065;50.786;7.840;2023-04-01T04:13:45;12.40;55.80
21807;DHT22;11065;50.786;7.840;2023-04-01T04:16:16;12.40;55.90
21807;DHT22;11065;50.786;7.840;2023-04-01T04:18:49;12.40;56.00
21807;DHT22;11065;50.786;7.840;2023-04-01T04:21:17;12.40;56.10
21807;DHT22;11065;50.786;7.840;2023-04-01T04:23:45;12.40;56.10
21807;DHT22;11065;50.786;7.840;2023-04-01T04:26:16;12.40;56.20
21807;DHT22;11065;50.786;7.840;2023-04-01T04:28:54;12.40;55.90
21807;DHT22;11065;50.786;7.840;2023-04-01T04:31:23;12.30;56.20
21807;DHT22;11065;50.786;7.840;2023-04-01T04:33:54;12.30;55.90
21807;DHT22;11065;50.786;7.840;2023-04-01T04:36:23;12.30;55.90
21807;DHT22;11065;50.786;7.840;2023-04-01T04:38:52;12.30;55.80
21807;DHT22;11065;50.786;7.840;2023-04-01T04:41:20;12.30;56.10
21807;DHT22;11065;50.786;7.840;2023-04-01T04:43:52;12.30;55.90
21807;DHT22;11065;50.786;7.840;2023-04-01T04:46:22;12.30;56.00
21807;DHT22;11065;50.786;7.840;2023-04-01T04:48:56;12.30;56.30
21807;DHT22;11065;50.786;7.840;2023-04-01T04:51:25;12.20;56.50
21807;DHT22;11065;50.786;7.840;2023-04-01T04:53:53;12.20;56.20
21807;DHT22;11065;50.786;7.840;2023-04-01T04:56:32;12.30;56.10
21807;DHT22;11065;50.786;7.840;2023-04-01T04:59:06;12.20;56.20
21807;DHT22;11065;50.786;7.840;2023-04-01T05:01:42;12.20;56.20
21807;DHT22;11065;50.786;7.840;2023-04-01T05:04:10;12.20;56.80
21807;DHT22;11065;50.786;7.840;2023-04-01T05:06:39;12.20;56.40
21807;DHT22;11065;50.786;7.840;2023-04-01T05:09:07;12.20;56.20
21807;DHT22;11065;50.786;7.840;2023-04-01T05:11:35;12.20;56.40
21807;DHT22;11065;50.786;7.840;2023-04-01T05:14:05;12.20;56.10
21807;DHT22;11065;50.786;7.840;2023-04-01T05:16:33;12.20;56.30
21807;DHT22;11065;50.786;7.840;2023-04-01T05:19:02;12.20;56.20
21807;DHT22;11065;50.786;7.840;2023-04-01T05:21:31;12.20;56.70
21807;DHT22;11065;50.786;7.840;2023-04-01T05:24:00;12.20;56.40
21807;DHT22;11065;50.786;7.840;2023-04-01T05:26:30;12.20;56.40
21807;DHT22;11065;50.786;7.840;2023-04-01T05:28:59;12.20;56.30
21807;DHT22;11065;50.786;7.840;2023-04-01T05:31:28;12.20;56.40
21807;DHT22;11065;50.786;7.840;2023-04-01T05:33:57;12.20;56.50
21807;DHT22;11065;50.786;7.840;2023-04-01T05:36:25;12.20;56.70
21807;DHT22;11065;50.786;7.840;2023-04-01T05:38:55;12.20;56.60
21807;DHT22;11065;50.786;7.840;2023-04-01T05:41:25;12.20;56.70
21807;DHT22;11065;50.786;7.840;2023-04-01T05:43:53;12.20;56.70
21807;DHT22;11065;50.786;7.840;2023-04-01T05:46:49;12.20;56.80
21807;DHT22;11065;50.786;7.840;2023-04-01T05:49:20;12.20;56.50
21807;DHT22;11065;50.786;7.840;2023-04-01T05:51:49;12.30;56.70
21807;DHT22;11065;50.786;7.840;2023-04-01T05:54:18;12.30;56.70
21807;DHT22;11065;50.786;7.840;2023-04-01T05:56:47;12.30;56.70
21807;DHT22;11065;50.786;7.840;2023-04-01T05:59:16;12.30;56.60
21807;DHT22;11065;50.786;7.840;2023-04-01T06:01:44;12.30;56.60
21807;DHT22;11065;50.786;7.840;2023-04-01T06:04:16;12.30;56.80
21807;DHT22;11065;50.786;7.840;2023-04-01T06:06:45;12.30;56.70
21807;DHT22;11065;50.786;7.840;2023-04-01T06:09:16;12.30;56.70
21807;DHT22;11065;50.786;7.840;2023-04-01T06:12:00;12.30;56.80
21807;DHT22;11065;50.786;7.840;2023-04-01T06:14:41;12.40;57.00
21807;DHT22;11065;50.786;7.840;2023-04-01T06:17:22;12.40;57.00
21807;DHT22;11065;50.786;7.840;2023-04-01T06:20:03;12.40;57.10
21807;DHT22;11065;50.786;7.840;2023-04-01T06:22:49;12.40;56.90
21807;DHT22;11065;50.786;7.840;2023-04-01T06:25:42;12.50;56.90
21807;DHT22;11065;50.786;7.840;2023-04-01T06:31:29;12.60;57.10
21807;DHT22;11065;50.786;7.840;2023-04-01T06:34:14;12.60;57.00
21807;DHT22;11065;50.786;7.840;2023-04-01T06:37:17;12.60;56.90
21807;DHT22;11065;50.786;7.840;2023-04-01T06:40:01;12.60;57.00
21807;DHT22;11065;50.786;7.840;2023-04-01T06:42:49;12.70;56.80
21807;DHT22;11065;50.786;7.840;2023-04-01T06:45:46;12.70;56.80
21807;DHT22;11065;50.786;7.840;2023-04-01T06:48:55;12.70;56.60
21807;DHT22;11065;50.786;7.840;2023-04-01T06:52:13;12.70;56.80
21807;DHT22;11065;50.786;7.840;2023-04-01T06:55:14;12.70;56.70
21807;DHT22;11065;50.786;7.840;2023-04-01T06:58:16;12.70;56.60
21807;DHT22;11065;50.786;7.840;2023-04-01T07:00:49;12.70;56.60
21807;DHT22;11065;50.786;7.840;2023-04-01T07:03:23;12.70;56.40
21807;DHT22;11065;50.786;7.840;2023-04-01T07:05:58;12.70;56.60
21807;DHT22;11065;50.786;7.840;2023-04-01T07:08:28;12.70;56.70
21807;DHT22;11065;50.786;7.840;2023-04-01T07:11:01;12.80;56.90
21807;DHT22;11065;50.786;7.840;2023-04-01T07:13:52;12.70;56.80
21807;DHT22;11065;50.786;7.840;2023-04-01T07:16:25;12.70;56.80
21807;DHT22;11065;50.786;7.840;2023-04-01T07:18:59;12.70;57.00
21807;DHT22;11065;50.786;7.840;2023-04-01T07:21:46;12.70;56.80
21807;DHT22;11065;50.786;7.840;2023-04-01T07:24:26;12.70;57.00
21807;DHT22;11065;50.786;7.840;2023-04-01T07:27:08;12.70;57.10
21807;DHT22;11065;50.786;7.840;2023-04-01T07:29:38;12.70;57.20
21807;DHT22;11065;50.786;7.840;2023-04-01T07:32:23;12.70;57.10
21807;DHT22;11065;50.786;7.840;2023-04-01T07:35:04;12.80;57.10
21807;DHT22;11065;50.786;7.840;2023-04-01T07:37:41;12.80;57.10
21807;DHT22;11065;50.786;7.840;2023-04-01T07:40:21;12.90;57.30
21807;DHT22;11065;50.786;7.840;2023-04-01T07:46:03;12.90;57.50
21807;DHT22;11065;50.786;7.840;2023-04-01T07:48:40;13.00;57.50
21807;DHT22;11065;50.786;7.840;2023-04-01T07:51:17;13.00;57.50
21807;DHT22;11065;50.786;7.840;2023-04-01T07:53:53;13.10;57.40
21807;DHT22;11065;50.786;7.840;2023-04-01T07:56:30;13.20;57.40
21807;DHT22;11065;50.786;7.840;2023-04-01T07:59:05;13.20;57.30
21807;DHT22;11065;50.786;7.840;2023-04-01T08:01:58;13.20;57.50
21807;DHT22;11065;50.786;7.840;2023-04-01T08:04:40;13.30;57.30
21807;DHT22;11065;50.786;7.840;2023-04-01T08:07:13;13.30;57.40
21807;DHT22;11065;50.786;7.840;2023-04-01T08:10:03;13.40;57.30
21807;DHT22;11065;50.786;7.840;2023-04-01T08:12:59;13.40;57.20
21807;DHT22;11065;50.786;7.840;2023-04-01T08:15:59;13.50;57.40
21807;DHT22;11065;50.786;7.840;2023-04-01T08:18:41;13.60;57.60
21807;DHT22;11065;50.786;7.840;2023-04-01T08:21:14;13.60;57.70
21807;DHT22;11065;50.786;7.840;2023-04-01T08:23:48;13.70;57.70
21807;DHT22;11065;50.786;7.840;2023-04-01T08:26:26;13.80;57.50
21807;DHT22;11065;50.786;7.840;2023-04-01T08:29:01;13.90;57.30
21807;DHT22;11065;50.786;7.840;2023-04-01T08:31:37;14.00;57.30
21807;DHT22;11065;50.786;7.840;2023-04-01T08:34:13;14.10;57.40
21807;DHT22;11065;50.786;7.840;2023-04-01T08:36:45;14.20;57.30
21807;DHT22;11065;50.786;7.840;2023-04-01T08:39:19;14.20;57.20
21807;DHT22;11065;50.786;7.840;2023-04-01T08:45:07;14.30;57.30
21807;DHT22;11065;50.786;7.840;2023-04-01T08:48:13;14.40;57.10
21807;DHT22;11065;50.786;7.840;2023-04-01T08:51:28;14.40;56.80
21807;DHT22;11065;50.786;7.840;2023-04-01T08:54:16;14.40;56.90
21807;DHT22;11065;50.786;7.840;2023-04-01T08:56:56;14.40;56.40
21807;DHT22;11065;50.786;7.840;2023-04-01T08:59:35;14.40;56.20
21807;DHT22;11065;50.786;7.840;2023-04-01T09:02:43;14.30;56.00
21807;DHT22;11065;50.786;7.840;2023-04-01T09:05:47;14.30;56.40
21807;DHT22;11065;50.786;7.840;2023-04-01T09:08:31;14.20;56.60
21807;DHT22;11065;50.786;7.840;2023-04-01T09:11:06;14.20;56.60
21807;DHT22;11065;50.786;7.840;2023-04-01T09:14:21;14.20;56.70
21807;DHT22;11065;50.786;7.840;2023-04-01T09:20:59;14.20;56.60
21807;DHT22;11065;50.786;7.840;2023-04-01T09:23:54;14.20;56.70
21807;DHT22;11065;50.786;7.840;2023-04-01T09:26:50;14.20;56.50
21807;DHT22;11065;50.786;7.840;2023-04-01T09:29:33;14.20;56.50
21807;DHT22;11065;50.786;7.840;2023-04-01T09:32:23;14.20;56.60
21807;DHT22;11065;50.786;7.840;2023-04-01T09:35:20;14.20;56.50
21807;DHT22;11065;50.786;7.840;2023-04-01T09:37:59;14.20;56.60
21807;DHT22;11065;50.786;7.840;2023-04-01T09:40:40;14.20;56.70
21807;DHT22;11065;50.786;7.840;2023-04-01T09:43:27;14.20;56.60
21807;DHT22;11065;50.786;7.840;2023-04-01T09:46:08;14.20;56.60
21807;DHT22;11065;50.786;7.840;2023-04-01T09:51:49;14.10;56.60
21807;DHT22;11065;50.786;7.840;2023-04-01T09:54:32;14.10;56.60
21807;DHT22;11065;50.786;7.840;2023-04-01T10:00:39;14.10;56.70
21807;DHT22;11065;50.786;7.840;2023-04-01T10:13:25;14.00;56.80
21807;DHT22;11065;50.786;7.840;2023-04-01T10:19:12;14.10;56.90
21807;DHT22;11065;50.786;7.840;2023-04-01T10:22:16;14.00;56.90
21807;DHT22;11065;50.786;7.840;2023-04-01T10:25:07;14.00;57.00
21807;DHT22;11065;50.786;7.840;2023-04-01T10:28:14;14.10;56.90
21807;DHT22;11065;50.786;7.840;2023-04-01T10:31:51;14.00;56.80
21807;DHT22;11065;50.786;7.840;2023-04-01T10:34:54;14.10;56.80
21807;DHT22;11065;50.786;7.840;2023-04-01T10:37:42;14.10;56.70
21807;DHT22;11065;50.786;7.840;2023-04-01T10:40:37;14.10;56.70
21807;DHT22;11065;50.786;7.840;2023-04-01T10:50:04;14.10;56.80
21807;DHT22;11065;50.786;7.840;2023-04-01T10:52:56;14.10;56.80
21807;DHT22;11065;50.786;7.840;2023-04-01T10:56:22;14.20;56.80
21807;DHT22;11065;50.786;7.840;2023-04-01T10:59:32;14.10;56.80
21807;DHT22;11065;50.786;7.840;2023-04-01T11:13:16;14.00;56.80
21807;DHT22;11065;50.786;7.840;2023-04-01T11:16:02;14.00;57.00
21807;DHT22;11065;50.786;7.840;2023-04-01T11:19:10;14.00;56.80
21807;DHT22;11065;50.786;7.840;2023-04-01T11:25:08;13.90;57.20
21807;DHT22;11065;50.786;7.840;2023-04-01T11:28:00;13.90;57.30
21807;DHT22;11065;50.786;7.840;2023-04-01T11:30:56;13.90;57.30
21807;DHT22;11065;50.786;7.840;2023-04-01T11:33:33;14.00;57.40
21807;DHT22;11065;50.786;7.840;2023-04-01T11:36:25;14.00;57.10
21807;DHT22;11065;50.786;7.840;2023-04-01T11:39:21;14.00;57.30
21807;DHT22;11065;50.786;7.840;2023-04-01T11:42:20;14.00;57.20
21807;DHT22;11065;50.786;7.840;2023-04-01T11:45:24;14.00;57.10
21807;DHT22;11065;50.786;7.840;2023-04-01T11:48:22;14.00;57.20
21807;DHT22;11065;50.786;7.840;2023-04-01T11:51:02;14.00;57.30
21807;DHT22;11065;50.786;7.840;2023-04-01T11:53:44;14.00;57.20
21807;DHT22;11065;50.786;7.840;2023-04-01T11:59:47;14.00;57.50
21807;DHT22;11065;50.786;7.840;2023-04-01T12:02:23;14.10;57.80
21807;DHT22;11065;50.786;7.840;2023-04-01T12:05:34;14.10;57.50
21807;DHT22;11065;50.786;7.840;2023-04-01T12:08:18;14.10;57.70
21807;DHT22;11065;50.786;7.840;2023-04-01T12:10:53;14.10;57.50
21807;DHT22;11065;50.786;7.840;2023-04-01T12:13:31;14.20;57.60
21807;DHT22;11065;50.786;7.840;2023-04-01T12:16:27;14.20;57.60
21807;DHT22;11065;50.786;7.840;2023-04-01T12:19:02;14.20;57.70
21807;DHT22;11065;50.786;7.840;2023-04-01T12:21:36;14.20;57.60
21807;DHT22;11065;50.786;7.840;2023-04-01T12:27:24;14.30;57.70
21807;DHT22;11065;50.786;7.840;2023-04-01T12:30:06;14.30;57.50
21807;DHT22;11065;50.786;7.840;2023-04-01T12:32:41;14.30;57.50
21807;DHT22;11065;50.786;7.840;2023-04-01T12:35:20;14.40;57.70
21807;DHT22;11065;50.786;7.840;2023-04-01T12:37:58;14.50;58.00
21807;DHT22;11065;50.786;7.840;2023-04-01T12:40:51;14.60;58.00
21807;DHT22;11065;50.786;7.840;2023-04-01T12:43:31;14.70;57.60
21807;DHT22;11065;50.786;7.840;2023-04-01T12:46:07;14.80;57.60
21807;DHT22;11065;50.786;7.840;2023-04-01T12:49:09;14.90;57.70
21807;DHT22;11065;50.786;7.840;2023-04-01T12:51:53;15.00;57.90
21807;DHT22;11065;50.786;7.840;2023-04-01T12:54:47;15.10;57.80
21807;DHT22;11065;50.786;7.840;2023-04-01T12:57:41;15.20;57.80
21807;DHT22;11065;50.786;7.840;2023-04-01T13:00:55;15.30;57.70
21807;DHT22;11065;50.786;7.840;2023-04-01T13:03:41;15.40;57.40
21807;DHT22;11065;50.786;7.840;2023-04-01T13:06:25;15.50;57.30
21807;DHT22;11065;50.786;7.840;2023-04-01T13:09:05;15.60;57.20
21807;DHT22;11065;50.786;7.840;2023-04-01T13:11:46;15.70;56.80
21807;DHT22;11065;50.786;7.840;2023-04-01T13:14:27;15.70;56.40
21807;DHT22;11065;50.786;7.840;2023-04-01T13:17:07;15.60;56.10
21807;DHT22;11065;50.786;7.840;2023-04-01T13:19:42;15.60;55.90
21807;DHT22;11065;50.786;7.840;2023-04-01T13:22:35;15.50;55.80
21807;DHT22;11065;50.786;7.840;2023-04-01T13:25:16;15.40;55.90
21807;DHT22;11065;50.786;7.840;2023-04-01T13:27:49;15.30;56.00
21807;DHT22;11065;50.786;7.840;2023-04-01T13:30:24;15.30;56.10
21807;DHT22;11065;50.786;7.840;2023-04-01T13:33:00;15.20;56.20
21807;DHT22;11065;50.786;7.840;2023-04-01T13:35:39;15.20;56.60
21807;DHT22;11065;50.786;7.840;2023-04-01T13:38:31;15.20;56.30
21807;DHT22;11065;50.786;7.840;2023-04-01T13:41:11;15.10;56.50
21807;DHT22;11065;50.786;7.840;2023-04-01T13:43:45;15.10;56.50
21807;DHT22;11065;50.786;7.840;2023-04-01T13:46:25;15.10;56.70
21807;DHT22;11065;50.786;7.840;2023-04-01T13:49:14;15.20;56.60
21807;DHT22;11065;50.786;7.840;2023-04-01T13:52:06;15.20;56.40
21807;DHT22;11065;50.786;7.840;2023-04-01T13:55:06;15.30;56.50
21807;DHT22;11065;50.786;7.840;2023-04-01T13:57:44;15.20;56.50
21807;DHT22;11065;50.786;7.840;2023-04-01T14:00:35;15.30;56.70
21807;DHT22;11065;50.786;7.840;2023-04-01T14:03:26;15.30;56.90
21807;DHT22;11065;50.786;7.840;2023-04-01T14:06:09;15.30;56.90
21807;DHT22;11065;50.786;7.840;2023-04-01T14:08:51;15.40;57.00
21807;DHT22;11065;50.786;7.840;2023-04-01T14:11:29;15.50;57.00
21807;DHT22;11065;50.786;7.840;2023-04-01T14:14:05;15.50;56.90
21807;DHT22;11065;50.786;7.840;2023-04-01T14:16:59;15.60;56.70
21807;DHT22;11065;50.786;7.840;2023-04-01T14:19:45;15.60;56.50
21807;DHT22;11065;50.786;7.840;2023-04-01T14:22:24;15.60;56.20
21807;DHT22;11065;50.786;7.840;2023-04-01T14:25:17;15.60;56.10
21807;DHT22;11065;50.786;7.840;2023-04-01T14:27:55;15.60;55.60
21807;DHT22;11065;50.786;7.840;2023-04-01T14:30:41;15.60;55.80
21807;DHT22;11065;50.786;7.840;2023-04-01T14:33:23;15.60;55.60
21807;DHT22;11065;50.786;7.840;2023-04-01T14:36:11;15.50;55.50
21807;DHT22;11065;50.786;7.840;2023-04-01T14:38:58;15.40;55.50
21807;DHT22;11065;50.786;7.840;2023-04-01T14:41:35;15.40;55.60
21807;DHT22;11065;50.786;7.840;2023-04-01T14:44:30;15.30;55.50
21807;DHT22;11065;50.786;7.840;2023-04-01T14:47:39;15.30;55.50
21807;DHT22;11065;50.786;7.840;2023-04-01T14:50:15;15.20;55.50
21807;DHT22;11065;50.786;7.840;2023-04-01T14:52:49;15.20;55.60
21807;DHT22;11065;50.786;7.840;2023-04-01T14:55:29;15.20;55.70
21807;DHT22;11065;50.786;7.840;2023-04-01T14:58:10;15.10;55.70
21807;DHT22;11065;50.786;7.840;2023-04-01T15:00:48;15.10;55.70
21807;DHT22;11065;50.786;7.840;2023-04-01T15:03:26;15.20;55.70
21807;DHT22;11065;50.786;7.840;2023-04-01T15:06:10;15.10;55.70
21807;DHT22;11065;50.786;7.840;2023-04-01T15:08:50;15.10;55.70
21807;DHT22;11065;50.786;7.840;2023-04-01T15:11:32;15.10;55.70
21807;DHT22;11065;50.786;7.840;2023-04-01T15:14:29;15.00;55.70
21807;DHT22;11065;50.786;7.840;2023-04-01T15:17:14;15.00;55.80
21807;DHT22;11065;50.786;7.840;2023-04-01T15:19:58;15.00;55.80
21807;DHT22;11065;50.786;7.840;2023-04-01T15:22:40;14.90;55.90
21807;DHT22;11065;50.786;7.840;2023-04-01T15:25:23;15.00;56.00
21807;DHT22;11065;50.786;7.840;2023-04-01T15:28:02;15.00;56.10
21807;DHT22;11065;50.786;7.840;2023-04-01T15:30:34;15.00;56.10
21807;DHT22;11065;50.786;7.840;2023-04-01T15:33:25;15.00;56.00
21807;DHT22;11065;50.786;7.840;2023-04-01T15:36:03;15.00;55.90
21807;DHT22;11065;50.786;7.840;2023-04-01T15:38:39;14.90;55.90
21807;DHT22;11065;50.786;7.840;2023-04-01T15:41:14;14.90;55.80
21807;DHT22;11065;50.786;7.840;2023-04-01T15:43:44;14.90;55.80
21807;DHT22;11065;50.786;7.840;2023-04-01T15:46:36;14.80;55.90
21807;DHT22;11065;50.786;7.840;2023-04-01T15:49:15;14.80;56.10
21807;DHT22;11065;50.786;7.840;2023-04-01T15:51:53;14.70;56.00
21807;DHT22;11065;50.786;7.840;2023-04-01T15:54:37;14.70;56.00
21807;DHT22;11065;50.786;7.840;2023-04-01T15:57:20;14.70;56.10
21807;DHT22;11065;50.786;7.840;2023-04-01T16:00:19;14.70;56.20
21807;DHT22;11065;50.786;7.840;2023-04-01T16:02:49;14.60;56.40
21807;DHT22;11065;50.786;7.840;2023-04-01T16:05:32;14.50;56.20
21807;DHT22;11065;50.786;7.840;2023-04-01T16:08:17;14.50;56.30
21807;DHT22;11065;50.786;7.840;2023-04-01T16:10:58;14.50;56.40
21807;DHT22;11065;50.786;7.840;2023-04-01T16:13:42;14.40;56.40
21807;DHT22;11065;50.786;7.840;2023-04-01T16:16:23;14.40;56.40
21807;DHT22;11065;50.786;7.840;2023-04-01T16:19:21;14.30;56.30
21807;DHT22;11065;50.786;7.840;2023-04-01T16:21:54;14.40;56.60
21807;DHT22;11065;50.786;7.840;2023-04-01T16:24:34;14.30;56.40
21807;DHT22;11065;50.786;7.840;2023-04-01T16:27:07;14.30;56.50
21807;DHT22;11065;50.786;7.840;2023-04-01T16:29:43;14.30;56.50
21807;DHT22;11065;50.786;7.840;2023-04-01T16:32:37;14.30;56.60
21807;DHT22;11065;50.786;7.840;2023-04-01T16:35:23;14.30;56.90
21807;DHT22;11065;50.786;7.840;2023-04-01T16:37:59;14.30;56.90
21807;DHT22;11065;50.786;7.840;2023-04-01T16:40:37;14.20;56.90
21807;DHT22;11065;50.786;7.840;2023-04-01T16:43:16;14.20;57.10
21807;DHT22;11065;50.786;7.840;2023-04-01T16:45:54;14.20;57.10
21807;DHT22;11065;50.786;7.840;2023-04-01T16:48:34;14.20;57.10
21807;DHT22;11065;50.786;7.840;2023-04-01T16:51:09;14.20;57.10
21807;DHT22;11065;50.786;7.840;2023-04-01T16:53:42;14.20;57.40
21807;DHT22;11065;50.786;7.840;2023-04-01T16:56:14;14.20;57.10
21807;DHT22;11065;50.786;7.840;2023-04-01T16:58:57;14.20;57.10
21807;DHT22;11065;50.786;7.840;2023-04-01T17:01:30;14.20;57.20
21807;DHT22;11065;50.786;7.840;2023-04-01T17:04:10;14.20;57.10
21807;DHT22;11065;50.786;7.840;2023-04-01T17:06:47;14.10;57.10
21807;DHT22;11065;50.786;7.840;2023-04-01T17:09:28;14.20;57.00
21807;DHT22;11065;50.786;7.840;2023-04-01T17:12:05;14.10;57.10
21807;DHT22;11065;50.786;7.840;2023-04-01T17:14:43;14.10;57.10
21807;DHT22;11065;50.786;7.840;2023-04-01T17:17:24;14.00;57.10
21807;DHT22;11065;50.786;7.840;2023-04-01T17:20:10;14.00;57.60
21807;DHT22;11065;50.786;7.840;2023-04-01T17:22:49;14.00;57.20
21807;DHT22;11065;50.786;7.840;2023-04-01T17:25:40;14.00;57.20
21807;DHT22;11065;50.786;7.840;2023-04-01T17:28:21;14.00;57.40
21807;DHT22;11065;50.786;7.840;2023-04-01T17:31:00;13.90;57.20
21807;DHT22;11065;50.786;7.840;2023-04-01T17:33:48;13.90;57.30
21807;DHT22;11065;50.786;7.840;2023-04-01T17:36:28;13.90;57.40
21807;DHT22;11065;50.786;7.840;2023-04-01T17:39:09;13.90;57.30
21807;DHT22;11065;50.786;7.840;2023-04-01T17:41:47;13.90;57.20
21807;DHT22;11065;50.786;7.840;2023-04-01T17:44:27;13.90;57.20
21807;DHT22;11065;50.786;7.840;2023-04-01T17:49:57;13.80;57.40